Katharina — V2DQ5 — position and weather

sailwx.info

Track history (hours):
 
Tides and Currents Weather Stations Pressure Air Temp Water Temp Dewpoint Dewpoint Depression Visibility Wind Speed Wind Dir Waves Ship Positions

Katharina

Last reported at 2016-Dec-07 03:04 UTC. Time now 2016-Dec-07 18:27 UTC.
Position N 53°30' E 004°46'.

Length 146 m; draft 6.5 m.

Type: Cargo ship. MMSI: 305305000.

Date/timePositionNaut miles runAvg speedWind from/ knotsBaromVisibWave heightAir tempDewpointWater temp
2016-Dec-07 03:04N 53°30' E 004°46'813.2
2016-Dec-07 02:29N 53°23' E 004°41'1213.1
2016-Dec-07 01:33N 53°12' E 004°32'1313.0
2016-Dec-07 00:34N 53°01' E 004°21'1313.2
2016-Dec-06 23:34N 52°49' E 004°12'1313.4
2016-Dec-06 22:33N 52°38' E 003°59'1413.6
2016-Dec-06 21:33N 52°25' E 003°53'1413.9
2016-Dec-06 20:34N 52°11' E 003°54'2110.6
2016-Dec-06 18:33N 51°55' E 004°15'6 6.0
2016-Dec-06 17:33N 51°53' E 004°25'0 0.0
2016-Dec-06 16:33N 51°53' E 004°25'0 0.0
2016-Dec-06 15:33N 51°53' E 004°25'0 0.0
2016-Dec-06 14:33N 51°53' E 004°25'0 0.0
2016-Dec-06 13:33N 51°53' E 004°25'0 0.0
2016-Dec-06 12:33N 51°53' E 004°25'0 0.0
2016-Dec-06 11:33N 51°53' E 004°25'0 0.0
2016-Dec-06 10:33N 51°53' E 004°25'0 0.0
2016-Dec-06 09:33N 51°53' E 004°25'0 0.0
2016-Dec-06 08:33N 51°53' E 004°25'0 0.0
2016-Dec-06 07:33N 51°53' E 004°25'0 0.0
2016-Dec-06 06:33N 51°53' E 004°25'0 0.0
2016-Dec-06 05:33N 51°53' E 004°25'0 0.0
2016-Dec-06 04:33N 51°53' E 004°25'0 0.0
2016-Dec-06 03:33N 51°53' E 004°25'0 0.0
2016-Dec-06 02:33N 51°53' E 004°25'0 0.0
2016-Dec-06 01:33N 51°53' E 004°25'0 0.0
2016-Dec-06 00:33N 51°53' E 004°25'0 0.0
2016-Dec-05 23:33N 51°53' E 004°25'0 0.0
2016-Dec-05 22:33N 51°53' E 004°25'0 0.0
2016-Dec-05 21:33N 51°53' E 004°25'0 0.0
2016-Dec-05 20:33N 51°53' E 004°25'0 0.0
2016-Dec-05 19:33N 51°53' E 004°25'0 0.0
2016-Dec-05 18:33N 51°53' E 004°25'0 0.0
2016-Dec-05 17:30N 51°53' E 004°25'0 0.0
2016-Dec-05 16:33N 51°53' E 004°25'0 0.0
2016-Dec-05 15:33N 51°53' E 004°25'0 0.0
2016-Dec-05 14:33N 51°53' E 004°25'0 0.0
2016-Dec-05 13:33N 51°53' E 004°25'0 0.0
2016-Dec-05 12:33N 51°53' E 004°25'0 0.0
2016-Dec-05 11:33N 51°53' E 004°25'0 0.0
2016-Dec-05 10:33N 51°53' E 004°25'0 0.0
2016-Dec-05 09:33N 51°53' E 004°25'0 0.0
2016-Dec-05 08:33N 51°53' E 004°25'0 0.0
2016-Dec-05 07:33N 51°53' E 004°25'0 0.0
2016-Dec-05 06:33N 51°53' E 004°25'0 0.0
2016-Dec-05 05:33N 51°53' E 004°25'0 0.0
2016-Dec-05 04:33N 51°53' E 004°25'0 0.0
2016-Dec-05 03:33N 51°53' E 004°25'0 0.0
2016-Dec-05 02:33N 51°53' E 004°25'0 0.0
2016-Dec-05 01:33N 51°53' E 004°25'0 0.0
2016-Dec-05 00:33N 51°53' E 004°25'0 0.0
2016-Dec-04 23:33N 51°53' E 004°25'0 0.0
2016-Dec-04 22:33N 51°53' E 004°25'0 0.3
2016-Dec-04 21:33N 51°53' E 004°24'8 7.9
2016-Dec-04 20:33N 51°56' E 004°12'1111.1
2016-Dec-04 19:33N 52°00' E 003°56'1010.5
2016-Dec-04 18:33N 52°04' E 003°40'7 6.9
2016-Dec-04 17:33N 52°07' E 003°30'6 6.4
2016-Dec-04 16:33N 52°12' E 003°22'7 7.1
2016-Dec-04 15:33N 52°18' E 003°18'7 6.8
2016-Dec-04 14:33N 52°25' E 003°15'7 7.0
2016-Dec-04 13:33N 52°32' E 003°13'7 7.1
2016-Dec-04 12:33N 52°39' E 003°09'331 6.9
2016-Dec-02 12:26N 57°29' W 001°27'1112.8
2016-Dec-02 11:33N 57°39' W 001°37'6012.0
2016-Dec-02 06:33N 58°28' W 002°43'1111.5
2016-Dec-02 05:33N 58°37' W 002°56'8 7.7
2016-Dec-02 04:33N 58°43' W 003°06'4 4.3
2016-Dec-02 03:33N 58°43' W 003°14'8 7.8
2016-Dec-02 02:33N 58°46' W 003°28'1110.7
2016-Dec-02 01:33N 58°54' W 003°41'1111.3
2016-Dec-02 00:33N 59°03' W 003°55'1211.7
2016-Dec-01 23:33N 59°12' W 004°09'1211.9
2016-Dec-01 22:32N 59°22' W 004°23'  
Track history (hours):
 
Tides and Currents Weather Stations Pressure Air Temp Water Temp Dewpoint Dewpoint Depression Visibility Wind Speed Wind Dir Waves Ship Positions

Katharina

Last reported at 2016-Dec-07 03:04 UTC. Time now 2016-Dec-07 18:27 UTC.
Position N 53°30' E 004°46'.

Length 146 m; draft 6.5 m.

Type: Cargo ship. MMSI: 305305000.

Date/timePositionNaut miles runAvg speedWind from/ knotsBaromVisibWave heightAir tempDewpointWater temp
2016-Dec-07 03:04N 53°30' E 004°46'813.2
2016-Dec-07 02:29N 53°23' E 004°41'1213.1
2016-Dec-07 01:33N 53°12' E 004°32'1313.0
2016-Dec-07 00:34N 53°01' E 004°21'1313.2
2016-Dec-06 23:34N 52°49' E 004°12'1313.4
2016-Dec-06 22:33N 52°38' E 003°59'1413.6
2016-Dec-06 21:33N 52°25' E 003°53'1413.9
2016-Dec-06 20:34N 52°11' E 003°54'2110.6
2016-Dec-06 18:33N 51°55' E 004°15'6 6.0
2016-Dec-06 17:33N 51°53' E 004°25'0 0.0
2016-Dec-06 16:33N 51°53' E 004°25'0 0.0
2016-Dec-06 15:33N 51°53' E 004°25'0 0.0
2016-Dec-06 14:33N 51°53' E 004°25'0 0.0
2016-Dec-06 13:33N 51°53' E 004°25'0 0.0
2016-Dec-06 12:33N 51°53' E 004°25'0 0.0
2016-Dec-06 11:33N 51°53' E 004°25'0 0.0
2016-Dec-06 10:33N 51°53' E 004°25'0 0.0
2016-Dec-06 09:33N 51°53' E 004°25'0 0.0
2016-Dec-06 08:33N 51°53' E 004°25'0 0.0
2016-Dec-06 07:33N 51°53' E 004°25'0 0.0
2016-Dec-06 06:33N 51°53' E 004°25'0 0.0
2016-Dec-06 05:33N 51°53' E 004°25'0 0.0
2016-Dec-06 04:33N 51°53' E 004°25'0 0.0
2016-Dec-06 03:33N 51°53' E 004°25'0 0.0
2016-Dec-06 02:33N 51°53' E 004°25'0 0.0
2016-Dec-06 01:33N 51°53' E 004°25'0 0.0
2016-Dec-06 00:33N 51°53' E 004°25'0 0.0
2016-Dec-05 23:33N 51°53' E 004°25'0 0.0
2016-Dec-05 22:33N 51°53' E 004°25'0 0.0
2016-Dec-05 21:33N 51°53' E 004°25'0 0.0
2016-Dec-05 20:33N 51°53' E 004°25'0 0.0
2016-Dec-05 19:33N 51°53' E 004°25'0 0.0
2016-Dec-05 18:33N 51°53' E 004°25'0 0.0
2016-Dec-05 17:30N 51°53' E 004°25'0 0.0
2016-Dec-05 16:33N 51°53' E 004°25'0 0.0
2016-Dec-05 15:33N 51°53' E 004°25'0 0.0
2016-Dec-05 14:33N 51°53' E 004°25'0 0.0
2016-Dec-05 13:33N 51°53' E 004°25'0 0.0
2016-Dec-05 12:33N 51°53' E 004°25'0 0.0
2016-Dec-05 11:33N 51°53' E 004°25'0 0.0
2016-Dec-05 10:33N 51°53' E 004°25'0 0.0
2016-Dec-05 09:33N 51°53' E 004°25'0 0.0
2016-Dec-05 08:33N 51°53' E 004°25'0 0.0
2016-Dec-05 07:33N 51°53' E 004°25'0 0.0
2016-Dec-05 06:33N 51°53' E 004°25'0 0.0
2016-Dec-05 05:33N 51°53' E 004°25'0 0.0
2016-Dec-05 04:33N 51°53' E 004°25'0 0.0
2016-Dec-05 03:33N 51°53' E 004°25'0 0.0
2016-Dec-05 02:33N 51°53' E 004°25'0 0.0
2016-Dec-05 01:33N 51°53' E 004°25'0 0.0
2016-Dec-05 00:33N 51°53' E 004°25'0 0.0
2016-Dec-04 23:33N 51°53' E 004°25'0 0.0
2016-Dec-04 22:33N 51°53' E 004°25'0 0.3
2016-Dec-04 21:33N 51°53' E 004°24'8 7.9
2016-Dec-04 20:33N 51°56' E 004°12'1111.1
2016-Dec-04 19:33N 52°00' E 003°56'1010.5
2016-Dec-04 18:33N 52°04' E 003°40'7 6.9
2016-Dec-04 17:33N 52°07' E 003°30'6 6.4
2016-Dec-04 16:33N 52°12' E 003°22'7 7.1
2016-Dec-04 15:33N 52°18' E 003°18'7 6.8
2016-Dec-04 14:33N 52°25' E 003°15'7 7.0
2016-Dec-04 13:33N 52°32' E 003°13'7 7.1
2016-Dec-04 12:33N 52°39' E 003°09'331 6.9
2016-Dec-02 12:26N 57°29' W 001°27'1112.8
2016-Dec-02 11:33N 57°39' W 001°37'6012.0
2016-Dec-02 06:33N 58°28' W 002°43'1111.5
2016-Dec-02 05:33N 58°37' W 002°56'8 7.7
2016-Dec-02 04:33N 58°43' W 003°06'4 4.3
2016-Dec-02 03:33N 58°43' W 003°14'8 7.8
2016-Dec-02 02:33N 58°46' W 003°28'1110.7
2016-Dec-02 01:33N 58°54' W 003°41'1111.3
2016-Dec-02 00:33N 59°03' W 003°55'1211.7
2016-Dec-01 23:33N 59°12' W 004°09'1211.9
2016-Dec-01 22:32N 59°22' W 004°23'  

Dump ship's entire track history